sensor_id;sensor_type;location;lat;lon;timestamp;pressure;altitude;pressure_sealevel;temperature;humidity
71964;BME280;59834;52.124;5.422;2022-11-20T00:02:13;101506.72;;;-4.17;93.26
71964;BME280;59834;52.124;5.422;2022-11-20T00:04:42;101496.50;;;-4.17;93.77
71964;BME280;59834;52.124;5.422;2022-11-20T00:07:11;101497.34;;;-4.16;94.00
71964;BME280;59834;52.124;5.422;2022-11-20T00:09:39;101499.03;;;-4.20;94.28
71964;BME280;59834;52.124;5.422;2022-11-20T00:12:13;101495.56;;;-4.27;94.35
71964;BME280;59834;52.124;5.422;2022-11-20T00:14:40;101492.13;;;-4.32;93.83
71964;BME280;59834;52.124;5.422;2022-11-20T00:17:08;101482.78;;;-4.28;94.32
71964;BME280;59834;52.124;5.422;2022-11-20T00:19:35;101490.47;;;-4.23;93.66
71964;BME280;59834;52.124;5.422;2022-11-20T00:22:04;101490.47;;;-4.25;93.79
71964;BME280;59834;52.124;5.422;2022-11-20T00:24:37;101484.50;;;-4.27;94.11
71964;BME280;59834;52.124;5.422;2022-11-20T00:27:09;101483.59;;;-4.31;94.15
71964;BME280;59834;52.124;5.422;2022-11-20T00:29:37;101481.91;;;-4.32;94.07
71964;BME280;59834;52.124;5.422;2022-11-20T00:32:05;101487.84;;;-4.33;94.86
71964;BME280;59834;52.124;5.422;2022-11-20T00:34:35;101489.50;;;-4.36;94.00
71964;BME280;59834;52.124;5.422;2022-11-20T00:37:05;101484.41;;;-4.38;94.03
71964;BME280;59834;52.124;5.422;2022-11-20T00:39:39;101480.16;;;-4.37;94.03
71964;BME280;59834;52.124;5.422;2022-11-20T00:42:13;101474.16;;;-4.41;94.04
71964;BME280;59834;52.124;5.422;2022-11-20T00:44:42;101478.38;;;-4.43;94.91
71964;BME280;59834;52.124;5.422;2022-11-20T00:47:11;101480.94;;;-4.46;95.03
71964;BME280;59834;52.124;5.422;2022-11-20T00:49:42;101485.19;;;-4.46;94.11
71964;BME280;59834;52.124;5.422;2022-11-20T00:52:15;101480.97;;;-4.41;94.16
71964;BME280;59834;52.124;5.422;2022-11-20T00:54:43;101479.28;;;-4.41;94.85
71964;BME280;59834;52.124;5.422;2022-11-20T00:57:10;101472.47;;;-4.39;94.43
71964;BME280;59834;52.124;5.422;2022-11-20T00:59:42;101469.00;;;-4.47;94.73
71964;BME280;59834;52.124;5.422;2022-11-20T01:02:17;101469.84;;;-4.48;94.64
71964;BME280;59834;52.124;5.422;2022-11-20T01:04:51;101468.16;;;-4.46;95.11
71964;BME280;59834;52.124;5.422;2022-11-20T01:07:18;101465.63;;;-4.46;94.62
71964;BME280;59834;52.124;5.422;2022-11-20T01:09:47;101463.06;;;-4.46;94.50
71964;BME280;59834;52.124;5.422;2022-11-20T01:12:15;101466.44;;;-4.47;94.49
71964;BME280;59834;52.124;5.422;2022-11-20T01:14:55;101468.16;;;-4.46;94.61
71964;BME280;59834;52.124;5.422;2022-11-20T01:17:22;101473.28;;;-4.46;94.66
71964;BME280;59834;52.124;5.422;2022-11-20T01:19:50;101469.81;;;-4.51;94.74
71964;BME280;59834;52.124;5.422;2022-11-20T01:22:17;101459.59;;;-4.53;95.04
71964;BME280;59834;52.124;5.422;2022-11-20T01:24:45;101444.19;;;-4.60;94.78
71964;BME280;59834;52.124;5.422;2022-11-20T01:27:16;101451.84;;;-4.60;95.37
71964;BME280;59834;52.124;5.422;2022-11-20T01:29:43;101450.16;;;-4.60;95.34
71964;BME280;59834;52.124;5.422;2022-11-20T01:32:12;101454.38;;;-4.63;95.05
71964;BME280;59834;52.124;5.422;2022-11-20T01:34:38;101453.50;;;-4.67;95.29
71964;BME280;59834;52.124;5.422;2022-11-20T01:37:05;101452.63;;;-4.70;95.34
71964;BME280;59834;52.124;5.422;2022-11-20T01:39:31;101453.44;;;-4.73;95.82
71964;BME280;59834;52.124;5.422;2022-11-20T01:41:59;101450.03;;;-4.74;96.09
71964;BME280;59834;52.124;5.422;2022-11-20T01:44:51;101448.31;;;-4.75;95.35
71964;BME280;59834;52.124;5.422;2022-11-20T01:47:36;101450.88;;;-4.75;95.78
71964;BME280;59834;52.124;5.422;2022-11-20T01:50:15;101460.31;;;-4.69;96.17
71964;BME280;59834;52.124;5.422;2022-11-20T01:52:49;101450.09;;;-4.69;95.51
71964;BME280;59834;52.124;5.422;2022-11-20T01:55:23;101453.44;;;-4.75;96.03
71964;BME280;59834;52.124;5.422;2022-11-20T01:57:52;101447.38;;;-4.86;95.66
71964;BME280;59834;52.124;5.422;2022-11-20T02:00:20;101445.63;;;-4.91;96.40
71964;BME280;59834;52.124;5.422;2022-11-20T02:02:56;101443.94;;;-4.88;96.38
71964;BME280;59834;52.124;5.422;2022-11-20T02:05:38;101452.41;;;-4.90;95.42
71964;BME280;59834;52.124;5.422;2022-11-20T02:08:06;101450.69;;;-4.93;95.87
71964;BME280;59834;52.124;5.422;2022-11-20T02:10:33;101454.09;;;-4.94;96.61
71964;BME280;59834;52.124;5.422;2022-11-20T02:13:00;101445.56;;;-4.99;96.47
71964;BME280;59834;52.124;5.422;2022-11-20T02:15:46;101448.06;;;-5.02;96.55
71964;BME280;59834;52.124;5.422;2022-11-20T02:18:14;101450.59;;;-5.05;96.27
71964;BME280;59834;52.124;5.422;2022-11-20T02:20:44;101446.25;;;-5.11;96.48
71964;BME280;59834;52.124;5.422;2022-11-20T02:23:14;101442.75;;;-5.21;96.52
71964;BME280;59834;52.124;5.422;2022-11-20T02:25:44;101449.47;;;-5.29;96.27
71964;BME280;59834;52.124;5.422;2022-11-20T02:28:18;101441.75;;;-5.35;96.67
71964;BME280;59834;52.124;5.422;2022-11-20T02:30:44;101440.88;;;-5.37;96.26
71964;BME280;59834;52.124;5.422;2022-11-20T02:33:13;101444.31;;;-5.35;96.32
71964;BME280;59834;52.124;5.422;2022-11-20T02:35:42;101428.16;;;-5.34;96.52
71964;BME280;59834;52.124;5.422;2022-11-20T02:38:09;101433.25;;;-5.34;96.63
71964;BME280;59834;52.124;5.422;2022-11-20T02:40:36;101420.50;;;-5.35;96.60
71964;BME280;59834;52.124;5.422;2022-11-20T02:43:03;101425.63;;;-5.31;96.39
71964;BME280;59834;52.124;5.422;2022-11-20T02:45:29;101420.56;;;-5.29;96.01
71964;BME280;59834;52.124;5.422;2022-11-20T02:47:56;101415.38;;;-5.34;96.16
71964;BME280;59834;52.124;5.422;2022-11-20T02:50:22;101423.88;;;-5.36;96.25
71964;BME280;59834;52.124;5.422;2022-11-20T02:52:49;101423.03;;;-5.34;95.69
71964;BME280;59834;52.124;5.422;2022-11-20T02:55:16;101420.53;;;-5.32;96.04
71964;BME280;59834;52.124;5.422;2022-11-20T02:57:42;101424.75;;;-5.36;95.43
71964;BME280;59834;52.124;5.422;2022-11-20T03:00:09;101415.34;;;-5.38;96.08
71964;BME280;59834;52.124;5.422;2022-11-20T03:02:36;101411.94;;;-5.39;95.65
71964;BME280;59834;52.124;5.422;2022-11-20T03:05:02;101408.56;;;-5.36;95.60
71964;BME280;59834;52.124;5.422;2022-11-20T03:07:29;101408.59;;;-5.33;95.38
71964;BME280;59834;52.124;5.422;2022-11-20T03:09:56;101410.25;;;-5.37;95.65
71964;BME280;59834;52.124;5.422;2022-11-20T03:12:22;101408.59;;;-5.33;96.18
71964;BME280;59834;52.124;5.422;2022-11-20T03:14:48;101406.81;;;-5.40;95.77
71964;BME280;59834;52.124;5.422;2022-11-20T03:17:19;101404.22;;;-5.45;95.87
71964;BME280;59834;52.124;5.422;2022-11-20T03:19:46;101398.19;;;-5.50;95.58
71964;BME280;59834;52.124;5.422;2022-11-20T03:22:12;101405.84;;;-5.52;95.72
71964;BME280;59834;52.124;5.422;2022-11-20T03:24:39;101395.66;;;-5.50;96.29
71964;BME280;59834;52.124;5.422;2022-11-20T03:27:05;101399.03;;;-5.51;95.85
71964;BME280;59834;52.124;5.422;2022-11-20T03:29:31;101400.75;;;-5.53;96.21
71964;BME280;59834;52.124;5.422;2022-11-20T03:31:58;101400.69;;;-5.56;96.31
71964;BME280;59834;52.124;5.422;2022-11-20T03:34:25;101390.47;;;-5.59;96.64
71964;BME280;59834;52.124;5.422;2022-11-20T03:36:51;101388.72;;;-5.60;96.23
71964;BME280;59834;52.124;5.422;2022-11-20T03:39:18;101396.41;;;-5.59;96.71
71964;BME280;59834;52.124;5.422;2022-11-20T03:41:45;101391.25;;;-5.63;96.29
71964;BME280;59834;52.124;5.422;2022-11-20T03:44:11;101393.75;;;-5.70;96.71
71964;BME280;59834;52.124;5.422;2022-11-20T03:46:38;101386.06;;;-5.73;96.53
71964;BME280;59834;52.124;5.422;2022-11-20T03:49:05;101380.06;;;-5.75;96.66
71964;BME280;59834;52.124;5.422;2022-11-20T03:51:34;101374.13;;;-5.77;96.83
71964;BME280;59834;52.124;5.422;2022-11-20T03:54:04;101381.75;;;-5.77;96.84
71964;BME280;59834;52.124;5.422;2022-11-20T03:56:33;101381.78;;;-5.74;96.80
71964;BME280;59834;52.124;5.422;2022-11-20T03:59:00;101384.31;;;-5.75;96.17
71964;BME280;59834;52.124;5.422;2022-11-20T04:01:33;101384.25;;;-5.81;96.01
71964;BME280;59834;52.124;5.422;2022-11-20T04:04:00;101385.13;;;-5.79;96.18
71964;BME280;59834;52.124;5.422;2022-11-20T04:06:34;101378.31;;;-5.79;95.99
71964;BME280;59834;52.124;5.422;2022-11-20T04:09:01;101373.22;;;-5.79;95.82
71964;BME280;59834;52.124;5.422;2022-11-20T04:11:29;101366.38;;;-5.83;95.68
71964;BME280;59834;52.124;5.422;2022-11-20T04:13:59;101367.25;;;-5.82;95.74
71964;BME280;59834;52.124;5.422;2022-11-20T04:16:29;101370.63;;;-5.83;95.90
71964;BME280;59834;52.124;5.422;2022-11-20T04:18:58;101363.00;;;-5.82;96.02
71964;BME280;59834;52.124;5.422;2022-11-20T04:21:26;101360.34;;;-5.88;96.08
71964;BME280;59834;52.124;5.422;2022-11-20T04:23:53;101357.78;;;-5.91;95.47
71964;BME280;59834;52.124;5.422;2022-11-20T04:26:21;101354.41;;;-5.90;95.52
71964;BME280;59834;52.124;5.422;2022-11-20T04:28:49;101367.16;;;-5.93;95.53
71964;BME280;59834;52.124;5.422;2022-11-20T04:31:20;101371.31;;;-5.98;95.75
71964;BME280;59834;52.124;5.422;2022-11-20T04:33:47;101373.81;;;-6.01;95.17
71964;BME280;59834;52.124;5.422;2022-11-20T04:36:17;101367.03;;;-6.01;95.65
71964;BME280;59834;52.124;5.422;2022-11-20T04:38:44;101366.16;;;-6.01;95.94
71964;BME280;59834;52.124;5.422;2022-11-20T04:41:16;101354.22;;;-6.07;95.82
71964;BME280;59834;52.124;5.422;2022-11-20T04:43:46;101354.09;;;-6.14;95.97
71964;BME280;59834;52.124;5.422;2022-11-20T04:46:15;101352.41;;;-6.15;95.72
71964;BME280;59834;52.124;5.422;2022-11-20T04:48:42;101340.50;;;-6.17;95.81
71964;BME280;59834;52.124;5.422;2022-11-20T04:51:09;101343.91;;;-6.14;96.17
71964;BME280;59834;52.124;5.422;2022-11-20T04:53:36;101346.41;;;-6.18;96.01
71964;BME280;59834;52.124;5.422;2022-11-20T04:56:06;101348.16;;;-6.17;95.90
71964;BME280;59834;52.124;5.422;2022-11-20T04:58:33;101337.06;;;-6.19;96.09
71964;BME280;59834;52.124;5.422;2022-11-20T05:01:05;101337.06;;;-6.19;96.03
71964;BME280;59834;52.124;5.422;2022-11-20T05:03:33;101339.63;;;-6.20;96.12
71964;BME280;59834;52.124;5.422;2022-11-20T05:06:05;101342.97;;;-6.23;96.05
71964;BME280;59834;52.124;5.422;2022-11-20T05:08:33;101345.47;;;-6.26;96.32
71964;BME280;59834;52.124;5.422;2022-11-20T05:11:04;101342.88;;;-6.27;96.37
71964;BME280;59834;52.124;5.422;2022-11-20T05:13:31;101336.13;;;-6.27;96.58
71964;BME280;59834;52.124;5.422;2022-11-20T05:16:13;101339.50;;;-6.28;96.30
71964;BME280;59834;52.124;5.422;2022-11-20T05:18:40;101341.19;;;-6.30;96.31
71964;BME280;59834;52.124;5.422;2022-11-20T05:21:09;101336.91;;;-6.31;96.36
71964;BME280;59834;52.124;5.422;2022-11-20T05:23:37;101337.78;;;-6.27;96.87
71964;BME280;59834;52.124;5.422;2022-11-20T05:26:05;101325.03;;;-6.30;96.30
71964;BME280;59834;52.124;5.422;2022-11-20T05:28:32;101317.41;;;-6.30;97.33
71964;BME280;59834;52.124;5.422;2022-11-20T05:31:17;101310.56;;;-6.33;96.83
71964;BME280;59834;52.124;5.422;2022-11-20T05:33:51;101313.88;;;-6.38;96.22
71964;BME280;59834;52.124;5.422;2022-11-20T05:36:18;101313.03;;;-6.37;96.47
71964;BME280;59834;52.124;5.422;2022-11-20T05:38:45;101305.44;;;-6.36;96.36
71964;BME280;59834;52.124;5.422;2022-11-20T05:41:18;101300.34;;;-6.36;96.75
71964;BME280;59834;52.124;5.422;2022-11-20T05:43:46;101296.09;;;-6.34;96.63
71964;BME280;59834;52.124;5.422;2022-11-20T05:46:15;101295.25;;;-6.36;96.36
71964;BME280;59834;52.124;5.422;2022-11-20T05:48:43;101304.59;;;-6.36;96.85
71964;BME280;59834;52.124;5.422;2022-11-20T05:51:12;101321.56;;;-6.37;96.44
71964;BME280;59834;52.124;5.422;2022-11-20T05:53:39;101326.53;;;-6.45;96.43
71964;BME280;59834;52.124;5.422;2022-11-20T05:56:18;101327.31;;;-6.49;96.45
71964;BME280;59834;52.124;5.422;2022-11-20T05:58:46;101328.19;;;-6.48;96.33
71964;BME280;59834;52.124;5.422;2022-11-20T06:01:15;101326.47;;;-6.48;96.29
71964;BME280;59834;52.124;5.422;2022-11-20T06:03:43;101328.19;;;-6.48;96.57
71964;BME280;59834;52.124;5.422;2022-11-20T06:06:16;101328.19;;;-6.48;96.80
71964;BME280;59834;52.124;5.422;2022-11-20T06:08:44;101346.03;;;-6.47;96.57
71964;BME280;59834;52.124;5.422;2022-11-20T06:11:12;101345.16;;;-6.50;96.64
71964;BME280;59834;52.124;5.422;2022-11-20T06:13:39;101349.34;;;-6.52;96.73
71964;BME280;59834;52.124;5.422;2022-11-20T06:16:08;101341.69;;;-6.54;96.87
71964;BME280;59834;52.124;5.422;2022-11-20T06:18:35;101354.44;;;-6.54;96.43
71964;BME280;59834;52.124;5.422;2022-11-20T06:21:08;101346.75;;;-6.55;96.82
71964;BME280;59834;52.124;5.422;2022-11-20T06:23:35;101345.97;;;-6.51;97.04
71964;BME280;59834;52.124;5.422;2022-11-20T06:26:07;101350.25;;;-6.47;96.79
71964;BME280;59834;52.124;5.422;2022-11-20T06:28:37;101345.16;;;-6.47;96.96
71964;BME280;59834;52.124;5.422;2022-11-20T06:31:05;101340.78;;;-6.57;96.70
71964;BME280;59834;52.124;5.422;2022-11-20T06:33:32;101350.16;;;-6.56;96.52
71964;BME280;59834;52.124;5.422;2022-11-20T06:36:00;101345.09;;;-6.53;97.08
71964;BME280;59834;52.124;5.422;2022-11-20T06:38:34;101339.22;;;-6.49;96.92
71964;BME280;59834;52.124;5.422;2022-11-20T06:41:00;101344.25;;;-6.54;96.42
71964;BME280;59834;52.124;5.422;2022-11-20T06:43:29;101340.81;;;-6.54;96.32
71964;BME280;59834;52.124;5.422;2022-11-20T06:45:57;101343.41;;;-6.51;96.73
71964;BME280;59834;52.124;5.422;2022-11-20T06:48:29;101349.34;;;-6.51;96.48
71964;BME280;59834;52.124;5.422;2022-11-20T06:50:57;101347.69;;;-6.49;96.63
71964;BME280;59834;52.124;5.422;2022-11-20T06:53:29;101349.44;;;-6.45;96.86
71964;BME280;59834;52.124;5.422;2022-11-20T06:55:56;101348.66;;;-6.42;96.31
71964;BME280;59834;52.124;5.422;2022-11-20T06:58:27;101338.50;;;-6.39;97.04
71964;BME280;59834;52.124;5.422;2022-11-20T07:01:25;101334.25;;;-6.40;96.30
71964;BME280;59834;52.124;5.422;2022-11-20T07:04:00;101326.53;;;-6.46;96.31
71964;BME280;59834;52.124;5.422;2022-11-20T07:06:30;101329.81;;;-6.53;96.46
71964;BME280;59834;52.124;5.422;2022-11-20T07:09:07;101323.06;;;-6.50;96.07
71964;BME280;59834;52.124;5.422;2022-11-20T07:11:38;101328.13;;;-6.51;95.82
71964;BME280;59834;52.124;5.422;2022-11-20T07:14:04;101326.38;;;-6.55;95.68
71964;BME280;59834;52.124;5.422;2022-11-20T07:16:31;101317.91;;;-6.54;95.32
71964;BME280;59834;52.124;5.422;2022-11-20T07:18:57;101318.00;;;-6.48;95.83
71964;BME280;59834;52.124;5.422;2022-11-20T07:21:25;101318.03;;;-6.47;95.53
71964;BME280;59834;52.124;5.422;2022-11-20T07:23:51;101321.44;;;-6.46;96.04
71964;BME280;59834;52.124;5.422;2022-11-20T07:26:18;101326.56;;;-6.43;95.69
71964;BME280;59834;52.124;5.422;2022-11-20T07:28:45;101325.75;;;-6.39;95.89
71964;BME280;59834;52.124;5.422;2022-11-20T07:31:12;101322.41;;;-6.35;95.78
71964;BME280;59834;52.124;5.422;2022-11-20T07:33:44;101313.13;;;-6.33;95.65
71964;BME280;59834;52.124;5.422;2022-11-20T07:36:11;101310.66;;;-6.27;95.60
71964;BME280;59834;52.124;5.422;2022-11-20T07:38:37;101314.13;;;-6.20;96.13
71964;BME280;59834;52.124;5.422;2022-11-20T07:41:04;101306.53;;;-6.15;96.31
71964;BME280;59834;52.124;5.422;2022-11-20T07:43:31;101302.34;;;-6.13;95.84
71964;BME280;59834;52.124;5.422;2022-11-20T07:46:05;101307.50;;;-6.04;96.11
71964;BME280;59834;52.124;5.422;2022-11-20T07:48:31;101311.84;;;-5.99;95.86
71964;BME280;59834;52.124;5.422;2022-11-20T07:50:59;101304.28;;;-5.93;95.89
71964;BME280;59834;52.124;5.422;2022-11-20T07:53:29;101306.94;;;-5.79;95.58
71964;BME280;59834;52.124;5.422;2022-11-20T07:55:59;101313.91;;;-5.62;96.15
71964;BME280;59834;52.124;5.422;2022-11-20T07:58:29;101314.75;;;-5.62;95.88
71964;BME280;59834;52.124;5.422;2022-11-20T08:00:56;101314.72;;;-5.66;95.42
71964;BME280;59834;52.124;5.422;2022-11-20T08:03:32;101315.63;;;-5.61;95.52
71964;BME280;59834;52.124;5.422;2022-11-20T08:05:59;101317.41;;;-5.51;95.83
71964;BME280;59834;52.124;5.422;2022-11-20T08:08:29;101308.13;;;-5.45;95.32
71964;BME280;59834;52.124;5.422;2022-11-20T08:10:59;101304.78;;;-5.37;95.03
71964;BME280;59834;52.124;5.422;2022-11-20T08:13:45;101293.81;;;-5.29;95.28
71964;BME280;59834;52.124;5.422;2022-11-20T08:16:30;101291.31;;;-5.24;95.50
71964;BME280;59834;52.124;5.422;2022-11-20T08:18:56;101293.91;;;-5.19;94.88
71964;BME280;59834;52.124;5.422;2022-11-20T08:21:23;101297.38;;;-5.11;95.33
71964;BME280;59834;52.124;5.422;2022-11-20T08:23:50;101295.78;;;-4.94;95.35
71964;BME280;59834;52.124;5.422;2022-11-20T08:26:16;101291.56;;;-4.92;95.23
71964;BME280;59834;52.124;5.422;2022-11-20T08:28:43;101289.03;;;-4.89;95.49
71964;BME280;59834;52.124;5.422;2022-11-20T08:31:10;101284.81;;;-4.85;94.96
71964;BME280;59834;52.124;5.422;2022-11-20T08:33:36;101283.97;;;-4.83;95.25
71964;BME280;59834;52.124;5.422;2022-11-20T08:36:04;101282.28;;;-4.78;94.33
71964;BME280;59834;52.124;5.422;2022-11-20T08:38:31;101292.56;;;-4.71;94.72
71964;BME280;59834;52.124;5.422;2022-11-20T08:40:59;101286.63;;;-4.64;95.00
71964;BME280;59834;52.124;5.422;2022-11-20T08:43:45;101290.94;;;-4.54;95.42
71964;BME280;59834;52.124;5.422;2022-11-20T08:46:12;101288.44;;;-4.48;95.41
71964;BME280;59834;52.124;5.422;2022-11-20T08:48:38;101287.59;;;-4.44;94.65
71964;BME280;59834;52.124;5.422;2022-11-20T08:51:05;101289.34;;;-4.37;95.29
71964;BME280;59834;52.124;5.422;2022-11-20T08:53:31;101284.25;;;-4.31;95.38
71964;BME280;59834;52.124;5.422;2022-11-20T08:55:58;101282.63;;;-4.16;95.41
71964;BME280;59834;52.124;5.422;2022-11-20T08:58:26;101283.50;;;-4.08;95.51
71964;BME280;59834;52.124;5.422;2022-11-20T09:00:52;101275.88;;;-3.99;95.58
71964;BME280;59834;52.124;5.422;2022-11-20T09:03:19;101275.03;;;-3.90;96.21
71964;BME280;59834;52.124;5.422;2022-11-20T09:05:45;101275.91;;;-3.81;95.93
71964;BME280;59834;52.124;5.422;2022-11-20T09:08:12;101281.03;;;-3.77;95.67
71964;BME280;59834;52.124;5.422;2022-11-20T09:10:38;101276.81;;;-3.75;95.86
71964;BME280;59834;52.124;5.422;2022-11-20T09:13:08;101275.97;;;-3.68;95.76
71964;BME280;59834;52.124;5.422;2022-11-20T09:15:35;101275.09;;;-3.60;96.34
71964;BME280;59834;52.124;5.422;2022-11-20T09:18:02;101275.97;;;-3.50;95.29
71964;BME280;59834;52.124;5.422;2022-11-20T09:20:30;101269.19;;;-3.42;95.64
71964;BME280;59834;52.124;5.422;2022-11-20T09:22:57;101269.16;;;-3.36;95.94
71964;BME280;59834;52.124;5.422;2022-11-20T09:25:24;101251.25;;;-3.29;95.85
71964;BME280;59834;52.124;5.422;2022-11-20T09:27:58;101246.97;;;-3.23;95.56
71964;BME280;59834;52.124;5.422;2022-11-20T09:30:27;101241.84;;;-3.14;96.52
71964;BME280;59834;52.124;5.422;2022-11-20T09:32:54;101243.56;;;-3.05;95.80
71964;BME280;59834;52.124;5.422;2022-11-20T09:35:21;101233.28;;;-3.02;95.65
71964;BME280;59834;52.124;5.422;2022-11-20T09:37:47;101230.75;;;-2.97;96.12
71964;BME280;59834;52.124;5.422;2022-11-20T09:40:34;101231.59;;;-2.85;95.46
71964;BME280;59834;52.124;5.422;2022-11-20T09:43:10;101228.16;;;-2.74;95.65
71964;BME280;59834;52.124;5.422;2022-11-20T09:45:56;101223.84;;;-2.66;96.47
71964;BME280;59834;52.124;5.422;2022-11-20T09:48:36;101214.44;;;-2.58;95.61
71964;BME280;59834;52.124;5.422;2022-11-20T09:54:22;101214.34;;;-2.40;96.14
71964;BME280;59834;52.124;5.422;2022-11-20T09:56:56;101215.16;;;-2.30;95.14
71964;BME280;59834;52.124;5.422;2022-11-20T09:59:33;101210.91;;;-2.32;95.09
71964;BME280;59834;52.124;5.422;2022-11-20T10:02:03;101210.00;;;-2.24;95.05
71964;BME280;59834;52.124;5.422;2022-11-20T10:04:33;101205.69;;;-2.14;95.11
71964;BME280;59834;52.124;5.422;2022-11-20T10:07:21;101206.50;;;-2.04;95.53
71964;BME280;59834;52.124;5.422;2022-11-20T10:09:58;101203.91;;;-2.03;95.81
71964;BME280;59834;52.124;5.422;2022-11-20T10:12:50;101195.31;;;-1.96;96.16
71964;BME280;59834;52.124;5.422;2022-11-20T10:15:35;101194.47;;;-1.96;95.03
71964;BME280;59834;52.124;5.422;2022-11-20T10:23:51;101180.59;;;-1.69;95.69
71964;BME280;59834;52.124;5.422;2022-11-20T10:29:13;101161.69;;;-1.57;94.99
71964;BME280;59834;52.124;5.422;2022-11-20T10:31:47;101165.94;;;-1.53;95.03
71964;BME280;59834;52.124;5.422;2022-11-20T10:34:23;101159.88;;;-1.48;95.68
71964;BME280;59834;52.124;5.422;2022-11-20T10:36:56;101153.88;;;-1.48;94.99
71964;BME280;59834;52.124;5.422;2022-11-20T10:39:37;101135.91;;;-1.47;94.66
71964;BME280;59834;52.124;5.422;2022-11-20T10:42:15;101131.59;;;-1.45;94.92
71964;BME280;59834;52.124;5.422;2022-11-20T10:44:49;101140.97;;;-1.37;95.66
71964;BME280;59834;52.124;5.422;2022-11-20T10:47:41;101137.44;;;-1.27;96.25
71964;BME280;59834;52.124;5.422;2022-11-20T10:50:11;101137.34;;;-1.18;95.20
71964;BME280;59834;52.124;5.422;2022-11-20T10:53:16;101118.47;;;-1.14;95.31
71964;BME280;59834;52.124;5.422;2022-11-20T10:55:53;101106.44;;;-1.12;95.77
71964;BME280;59834;52.124;5.422;2022-11-20T11:01:14;101101.13;;;-0.95;95.61
71964;BME280;59834;52.124;5.422;2022-11-20T11:03:41;101101.94;;;-0.90;95.61
71964;BME280;59834;52.124;5.422;2022-11-20T11:06:21;101100.09;;;-0.80;96.37
71964;BME280;59834;52.124;5.422;2022-11-20T11:08:53;101093.19;;;-0.77;95.74
71964;BME280;59834;52.124;5.422;2022-11-20T11:11:28;101093.97;;;-0.70;96.13
71964;BME280;59834;52.124;5.422;2022-11-20T11:14:05;101083.63;;;-0.65;96.41
71964;BME280;59834;52.124;5.422;2022-11-20T11:16:32;101082.69;;;-0.60;96.90
71964;BME280;59834;52.124;5.422;2022-11-20T11:19:06;101078.31;;;-0.55;96.52
71964;BME280;59834;52.124;5.422;2022-11-20T11:21:37;101075.72;;;-0.52;96.35
71964;BME280;59834;52.124;5.422;2022-11-20T11:24:22;101061.13;;;-0.51;96.43
71964;BME280;59834;52.124;5.422;2022-11-20T11:27:13;101060.28;;;-0.50;97.60
71964;BME280;59834;52.124;5.422;2022-11-20T11:29:43;101055.94;;;-0.48;96.86
71964;BME280;59834;52.124;5.422;2022-11-20T11:32:15;101045.63;;;-0.43;97.65
71964;BME280;59834;52.124;5.422;2022-11-20T11:34:42;101036.13;;;-0.40;97.44
71964;BME280;59834;52.124;5.422;2022-11-20T11:37:19;101037.75;;;-0.34;98.05
71964;BME280;59834;52.124;5.422;2022-11-20T11:39:48;101035.16;;;-0.33;98.11
71964;BME280;59834;52.124;5.422;2022-11-20T11:42:34;101030.03;;;-0.33;98.67
71964;BME280;59834;52.124;5.422;2022-11-20T11:45:02;101019.69;;;-0.30;97.74
71964;BME280;59834;52.124;5.422;2022-11-20T11:47:34;101022.16;;;-0.25;98.06
71964;BME280;59834;52.124;5.422;2022-11-20T11:55:50;101001.38;;;-0.11;99.29
71964;BME280;59834;52.124;5.422;2022-11-20T12:01:04;101002.09;;;-0.03;100.00
71964;BME280;59834;52.124;5.422;2022-11-20T12:03:38;100999.47;;;-0.02;98.81
71964;BME280;59834;52.124;5.422;2022-11-20T12:06:13;100992.56;;;0.04;98.83
71964;BME280;59834;52.124;5.422;2022-11-20T12:08:52;100992.41;;;0.10;100.00
71964;BME280;59834;52.124;5.422;2022-11-20T12:14:00;100958.72;;;0.23;100.00
71964;BME280;59834;52.124;5.422;2022-11-20T12:16:35;100968.94;;;0.27;100.00
71964;BME280;59834;52.124;5.422;2022-11-20T12:19:08;100960.25;;;0.32;99.64
71964;BME280;59834;52.124;5.422;2022-11-20T12:21:56;100961.03;;;0.37;100.00
71964;BME280;59834;52.124;5.422;2022-11-20T12:27:43;100960.00;;;0.46;100.00
71964;BME280;59834;52.124;5.422;2022-11-20T12:30:16;100962.59;;;0.44;100.00
71964;BME280;59834;52.124;5.422;2022-11-20T12:35:35;100954.94;;;0.41;100.00
71964;BME280;59834;52.124;5.422;2022-11-20T12:38:15;100950.63;;;0.42;100.00
71964;BME280;59834;52.124;5.422;2022-11-20T12:41:04;100948.06;;;0.42;99.94
71964;BME280;59834;52.124;5.422;2022-11-20T12:43:53;100942.91;;;0.42;99.99
71964;BME280;59834;52.124;5.422;2022-11-20T12:46:47;100930.91;;;0.41;100.00
71964;BME280;59834;52.124;5.422;2022-11-20T12:54:46;100895.66;;;0.43;100.00
71964;BME280;59834;52.124;5.422;2022-11-20T12:57:34;100889.56;;;0.49;100.00
71964;BME280;59834;52.124;5.422;2022-11-20T13:06:04;100873.03;;;0.59;100.00
71964;BME280;59834;52.124;5.422;2022-11-20T13:08:37;100869.44;;;0.66;100.00
71964;BME280;59834;52.124;5.422;2022-11-20T13:13:58;100876.13;;;0.73;100.00
71964;BME280;59834;52.124;5.422;2022-11-20T13:16:40;100858.16;;;0.72;100.00
71964;BME280;59834;52.124;5.422;2022-11-20T13:19:11;100859.00;;;0.72;100.00
71964;BME280;59834;52.124;5.422;2022-11-20T13:21:41;100845.19;;;0.75;100.00
71964;BME280;59834;52.124;5.422;2022-11-20T13:24:26;100842.56;;;0.76;100.00
71964;BME280;59834;52.124;5.422;2022-11-20T13:29:36;100830.47;;;0.80;100.00
71964;BME280;59834;52.124;5.422;2022-11-20T13:32:14;100829.63;;;0.79;100.00
71964;BME280;59834;52.124;5.422;2022-11-20T13:35:02;100821.94;;;0.78;100.00
71964;BME280;59834;52.124;5.422;2022-11-20T13:37:33;100833.03;;;0.80;100.00
71964;BME280;59834;52.124;5.422;2022-11-20T13:45:11;100821.09;;;0.77;100.00
71964;BME280;59834;52.124;5.422;2022-11-20T13:47:48;100809.91;;;0.78;100.00
71964;BME280;59834;52.124;5.422;2022-11-20T13:50:15;100809.84;;;0.81;100.00
71964;BME280;59834;52.124;5.422;2022-11-20T13:53:04;100806.38;;;0.82;100.00
71964;BME280;59834;52.124;5.422;2022-11-20T13:55:44;100794.31;;;0.83;100.00
71964;BME280;59834;52.124;5.422;2022-11-20T13:58:40;100802.06;;;0.83;100.00
71964;BME280;59834;52.124;5.422;2022-11-20T14:01:24;100813.19;;;0.83;100.00
71964;BME280;59834;52.124;5.422;2022-11-20T14:03:52;100808.94;;;0.82;100.00
71964;BME280;59834;52.124;5.422;2022-11-20T14:06:43;100800.38;;;0.80;100.00